createdAt,value
2023-03-15T00:01:21.028Z,96.44
2023-03-15T00:03:48.394Z,96.94
2023-03-15T00:06:16.595Z,97.93
2023-03-15T00:08:47.731Z,98.26
2023-03-15T00:11:17.009Z,99.03
2023-03-15T00:13:45.241Z,100.00
2023-03-15T00:16:17.745Z,100.00
2023-03-15T00:18:48.120Z,100.00
2023-03-15T00:21:15.740Z,99.75
2023-03-15T00:23:43.071Z,99.85
2023-03-15T00:26:10.761Z,100.00
2023-03-15T00:28:38.661Z,100.00
2023-03-15T00:31:16.039Z,100.00
2023-03-15T00:33:45.806Z,100.00
2023-03-15T00:36:13.813Z,100.00
2023-03-15T00:38:44.296Z,100.00
2023-03-15T00:41:14.618Z,100.00
2023-03-15T00:43:43.121Z,100.00
2023-03-15T00:46:11.793Z,100.00
2023-03-15T00:48:39.327Z,100.00
2023-03-15T00:51:19.224Z,100.00
2023-03-15T00:53:47.502Z,99.36
2023-03-15T00:56:18.475Z,99.73
2023-03-15T00:58:45.786Z,98.49
2023-03-15T01:01:16.225Z,98.33
2023-03-15T01:03:44.116Z,100.00
2023-03-15T01:06:14.661Z,100.00
2023-03-15T01:08:42.803Z,100.00
2023-03-15T01:11:15.215Z,100.00
2023-03-15T01:13:43.286Z,100.00
2023-03-15T01:16:13.395Z,100.00
2023-03-15T01:18:41.412Z,100.00
2023-03-15T01:21:10.765Z,100.00
2023-03-15T01:23:38.814Z,100.00
2023-03-15T01:26:10.323Z,99.69
2023-03-15T01:28:37.571Z,100.00
2023-03-15T01:31:05.850Z,100.00
2023-03-15T01:33:34.250Z,100.00
2023-03-15T01:36:04.916Z,100.00
2023-03-15T01:38:34.145Z,100.00
2023-03-15T01:41:01.875Z,99.65
2023-03-15T01:43:34.993Z,100.00
2023-03-15T01:46:02.635Z,100.00
2023-03-15T01:48:38.572Z,100.00
2023-03-15T01:51:14.256Z,100.00
2023-03-15T01:53:46.610Z,100.00
2023-03-15T01:56:15.691Z,99.71
2023-03-15T01:58:46.476Z,99.54
2023-03-15T02:01:16.583Z,99.61
2023-03-15T02:03:51.384Z,99.80
2023-03-15T02:06:21.199Z,99.94
2023-03-15T02:09:02.688Z,100.00
2023-03-15T02:11:35.700Z,99.39
2023-03-15T02:14:05.672Z,100.00
2023-03-15T02:16:35.724Z,99.67
2023-03-15T02:19:19.993Z,100.00
2023-03-15T02:22:33.256Z,100.00
2023-03-15T02:25:26.957Z,100.00
2023-03-15T02:27:56.155Z,100.00
2023-03-15T02:30:23.548Z,100.00
2023-03-15T02:32:51.293Z,98.90
2023-03-15T02:35:26.975Z,100.00
2023-03-15T02:37:54.825Z,100.00
2023-03-15T02:40:24.824Z,100.00
2023-03-15T02:42:56.339Z,100.00
2023-03-15T02:45:26.340Z,100.00
2023-03-15T02:47:54.239Z,100.00
2023-03-15T02:50:21.742Z,100.00
2023-03-15T02:52:49.997Z,100.00
2023-03-15T02:55:19.402Z,100.00
2023-03-15T02:57:48.581Z,100.00
2023-03-15T03:00:16.578Z,100.00
2023-03-15T03:02:47.368Z,100.00
2023-03-15T03:05:16.866Z,100.00
2023-03-15T03:07:44.913Z,100.00
2023-03-15T03:10:15.864Z,100.00
2023-03-15T03:12:53.716Z,100.00
2023-03-15T03:15:27.584Z,100.00
2023-03-15T03:17:55.252Z,100.00
2023-03-15T03:20:24.487Z,100.00
2023-03-15T03:22:52.021Z,100.00
2023-03-15T03:25:19.425Z,100.00
2023-03-15T03:27:48.540Z,100.00
2023-03-15T03:30:16.554Z,100.00
2023-03-15T03:32:49.859Z,100.00
2023-03-15T03:35:17.271Z,100.00
2023-03-15T03:37:44.944Z,100.00
2023-03-15T03:40:22.352Z,100.00
2023-03-15T03:42:49.961Z,100.00
2023-03-15T03:45:19.654Z,100.00
2023-03-15T03:47:51.859Z,100.00
2023-03-15T03:50:19.233Z,100.00
2023-03-15T03:52:46.924Z,100.00
2023-03-15T03:55:25.286Z,100.00
2023-03-15T03:57:54.104Z,100.00
2023-03-15T04:00:38.055Z,100.00
2023-03-15T04:03:06.839Z,100.00
2023-03-15T04:05:36.764Z,100.00
2023-03-15T04:08:04.915Z,100.00
2023-03-15T04:10:37.242Z,100.00
2023-03-15T04:13:04.754Z,100.00
2023-03-15T04:15:31.993Z,100.00
2023-03-15T04:18:00.364Z,100.00
2023-03-15T04:20:34.633Z,100.00
2023-03-15T04:23:03.194Z,100.00
2023-03-15T04:25:58.116Z,100.00
2023-03-15T04:28:44.112Z,100.00
2023-03-15T04:31:37.695Z,100.00
2023-03-15T04:34:28.458Z,100.00
2023-03-15T04:37:06.114Z,100.00
2023-03-15T04:39:59.861Z,100.00
2023-03-15T04:42:46.597Z,100.00
2023-03-15T04:45:32.166Z,100.00
2023-03-15T04:48:18.013Z,100.00
2023-03-15T04:51:04.211Z,100.00
2023-03-15T04:53:50.531Z,100.00
2023-03-15T04:56:37.467Z,100.00
2023-03-15T04:59:39.871Z,100.00
2023-03-15T05:02:30.820Z,100.00
2023-03-15T05:05:12.528Z,100.00
2023-03-15T05:07:54.241Z,100.00
2023-03-15T05:10:31.578Z,100.00
2023-03-15T05:13:09.797Z,100.00
2023-03-15T05:15:55.741Z,100.00
2023-03-15T05:18:38.729Z,100.00
2023-03-15T05:21:32.843Z,100.00
2023-03-15T05:24:18.793Z,100.00
2023-03-15T05:27:06.273Z,100.00
2023-03-15T05:29:54.105Z,100.00
2023-03-15T05:32:39.609Z,100.00
2023-03-15T05:35:32.346Z,100.00
2023-03-15T05:38:18.064Z,100.00
2023-03-15T05:41:03.232Z,100.00
2023-03-15T05:43:46.590Z,99.80
2023-03-15T05:46:32.537Z,98.30
2023-03-15T05:48:59.928Z,98.88
2023-03-15T05:51:38.709Z,95.68
2023-03-15T05:54:44.314Z,93.34
2023-03-15T05:57:28.074Z,87.35
2023-03-15T06:00:15.250Z,80.21
2023-03-15T06:02:44.102Z,82.31
2023-03-15T06:05:37.412Z,84.87
2023-03-15T06:08:08.521Z,85.91
2023-03-15T06:10:39.651Z,86.22
2023-03-15T06:13:09.596Z,88.67
2023-03-15T06:15:37.106Z,89.21
2023-03-15T06:18:05.779Z,88.11
2023-03-15T06:20:33.381Z,83.18
2023-03-15T06:23:07.697Z,61.71
2023-03-15T06:25:45.389Z,53.55
2023-03-15T06:28:13.529Z,46.96
2023-03-15T06:30:45.951Z,44.07
2023-03-15T06:33:13.482Z,40.21
2023-03-15T06:35:41.119Z,44.06
2023-03-15T06:38:10.451Z,42.24
2023-03-15T06:40:39.392Z,39.73
2023-03-15T06:43:07.245Z,38.41
2023-03-15T06:45:35.594Z,36.51
2023-03-15T06:48:04.903Z,36.81
2023-03-15T06:50:46.096Z,40.32
2023-03-15T06:53:15.251Z,41.86
2023-03-15T06:55:42.990Z,42.84
2023-03-15T06:58:10.969Z,38.63
2023-03-15T07:00:38.385Z,34.83
2023-03-15T07:03:05.987Z,37.22
2023-03-15T07:05:33.471Z,35.45
2023-03-15T07:08:01.140Z,32.55
2023-03-15T07:10:28.423Z,32.83
2023-03-15T07:12:55.973Z,31.61
2023-03-15T07:15:23.423Z,31.92
2023-03-15T07:17:50.949Z,34.11
2023-03-15T07:20:18.263Z,36.67
2023-03-15T07:22:45.845Z,37.43
2023-03-15T07:25:13.245Z,34.52
2023-03-15T07:27:41.244Z,34.62
2023-03-15T07:30:09.898Z,33.83
2023-03-15T07:32:39.145Z,32.26
2023-03-15T07:35:06.830Z,31.63
2023-03-15T07:37:34.418Z,30.56
2023-03-15T07:40:09.820Z,33.10
2023-03-15T07:42:37.610Z,33.66
2023-03-15T07:45:06.414Z,34.25
2023-03-15T07:47:34.196Z,35.25
2023-03-15T07:50:01.555Z,35.69
2023-03-15T07:52:29.118Z,33.11
2023-03-15T07:54:56.339Z,33.24
2023-03-15T07:57:23.903Z,37.39
2023-03-15T07:59:53.453Z,33.83
2023-03-15T08:02:21.086Z,30.78
2023-03-15T08:04:50.826Z,31.73
2023-03-15T08:07:18.323Z,30.79
2023-03-15T08:09:46.414Z,35.28
2023-03-15T08:12:14.229Z,39.42
2023-03-15T08:14:41.474Z,40.80
2023-03-15T08:17:13.169Z,37.08
2023-03-15T08:19:40.384Z,35.02
2023-03-15T08:22:08.329Z,37.87
2023-03-15T08:24:35.992Z,33.83
2023-03-15T08:27:05.118Z,34.75
2023-03-15T08:29:32.516Z,34.61
2023-03-15T08:32:00.277Z,31.92
2023-03-15T08:34:27.564Z,35.43
2023-03-15T08:36:55.196Z,37.68
2023-03-15T08:39:24.109Z,41.52
2023-03-15T08:41:51.688Z,45.73
2023-03-15T08:44:18.953Z,45.49
2023-03-15T08:46:46.751Z,42.23
2023-03-15T08:49:14.071Z,38.73
2023-03-15T08:51:41.650Z,38.09
2023-03-15T08:54:08.997Z,36.07
2023-03-15T08:56:36.572Z,37.80
2023-03-15T08:59:03.784Z,32.44
2023-03-15T09:01:31.373Z,31.22
2023-03-15T09:03:58.871Z,30.42
2023-03-15T09:06:26.425Z,29.47
2023-03-15T09:08:54.013Z,28.16
2023-03-15T09:11:22.886Z,29.77
2023-03-15T09:13:50.229Z,36.58
2023-03-15T09:16:18.156Z,37.16
2023-03-15T09:18:45.710Z,36.10
2023-03-15T09:21:13.260Z,33.83
2023-03-15T09:23:40.617Z,32.22
2023-03-15T09:26:08.169Z,32.74
2023-03-15T09:28:35.432Z,33.06
2023-03-15T09:31:06.826Z,31.88
2023-03-15T09:33:34.138Z,34.18
2023-03-15T09:36:01.756Z,36.73
2023-03-15T09:38:29.170Z,34.14
2023-03-15T09:40:59.033Z,32.87
2023-03-15T09:43:35.347Z,31.17
2023-03-15T09:46:26.611Z,29.09
2023-03-15T09:49:19.294Z,27.83
2023-03-15T09:51:59.851Z,27.53
2023-03-15T09:54:44.544Z,28.66
2023-03-15T09:57:19.713Z,28.94
2023-03-15T09:59:52.388Z,31.35
2023-03-15T10:02:24.775Z,33.22
2023-03-15T10:04:58.884Z,33.66
2023-03-15T10:07:26.516Z,32.51
2023-03-15T10:09:54.585Z,32.15
2023-03-15T10:12:29.611Z,34.09
2023-03-15T10:15:21.721Z,36.59
2023-03-15T10:17:58.291Z,40.43
2023-03-15T10:20:29.625Z,35.07
2023-03-15T10:23:09.196Z,36.46
2023-03-15T10:25:37.681Z,39.11
2023-03-15T10:28:08.290Z,38.93
2023-03-15T10:30:37.864Z,40.00
2023-03-15T10:33:26.503Z,37.03
2023-03-15T10:36:04.375Z,35.55
2023-03-15T10:38:38.731Z,34.85
2023-03-15T10:41:07.850Z,31.34
2023-03-15T10:43:40.117Z,30.34
2023-03-15T10:46:10.266Z,29.26
2023-03-15T10:48:41.294Z,29.63
2023-03-15T10:51:30.267Z,32.11
2023-03-15T10:54:04.719Z,34.96
2023-03-15T10:56:37.494Z,36.50
2023-03-15T10:59:17.224Z,37.16
2023-03-15T11:01:48.270Z,37.92
2023-03-15T11:04:17.587Z,39.41
2023-03-15T11:06:49.602Z,41.81
2023-03-15T11:09:22.848Z,41.84
2023-03-15T11:11:55.902Z,41.53
2023-03-15T11:14:23.593Z,41.13
2023-03-15T11:16:55.528Z,41.05
2023-03-15T11:19:28.126Z,42.06
2023-03-15T11:21:56.851Z,42.01
2023-03-15T11:24:30.725Z,42.76
2023-03-15T11:27:01.798Z,42.37
2023-03-15T11:29:35.593Z,40.34
2023-03-15T11:32:16.681Z,39.81
2023-03-15T11:34:53.361Z,39.89
2023-03-15T11:37:28.756Z,38.28
2023-03-15T11:40:15.558Z,38.84
2023-03-15T11:42:49.680Z,39.10
2023-03-15T11:45:34.392Z,38.99
2023-03-15T11:48:43.014Z,38.45
2023-03-15T11:51:13.214Z,37.96
2023-03-15T11:54:04.358Z,37.13
2023-03-15T11:56:44.171Z,36.30
2023-03-15T11:59:15.615Z,37.18
2023-03-15T12:01:46.231Z,36.66
2023-03-15T12:04:25.341Z,38.21
2023-03-15T12:06:54.806Z,38.55
2023-03-15T12:09:33.809Z,38.81
2023-03-15T12:12:07.167Z,39.80
2023-03-15T12:14:36.498Z,39.82
2023-03-15T12:17:28.936Z,39.88
2023-03-15T12:20:01.923Z,40.46
2023-03-15T12:22:33.953Z,40.79
2023-03-15T12:25:54.738Z,38.68
2023-03-15T12:28:30.462Z,38.97
2023-03-15T12:31:02.062Z,38.12
2023-03-15T12:33:32.311Z,37.62
2023-03-15T12:36:03.230Z,38.60
2023-03-15T12:38:43.154Z,40.03
2023-03-15T12:41:34.829Z,40.16
2023-03-15T12:44:18.852Z,39.03
2023-03-15T12:46:46.137Z,39.05
2023-03-15T12:49:27.473Z,39.67
2023-03-15T12:51:59.783Z,38.80
2023-03-15T12:54:45.542Z,39.42
2023-03-15T12:57:18.960Z,40.15
2023-03-15T12:59:59.245Z,39.50
2023-03-15T13:02:41.625Z,39.50
2023-03-15T13:05:10.713Z,38.97
2023-03-15T13:07:58.241Z,38.92
2023-03-15T13:10:31.168Z,38.90
2023-03-15T13:13:21.838Z,39.90
2023-03-15T13:16:18.643Z,40.04
2023-03-15T13:19:05.509Z,41.41
2023-03-15T13:21:36.692Z,41.22
2023-03-15T13:24:14.659Z,41.48
2023-03-15T13:26:55.824Z,42.11
2023-03-15T13:29:29.586Z,43.37
2023-03-15T13:32:19.148Z,43.27
2023-03-15T13:34:47.649Z,44.17
2023-03-15T13:37:18.146Z,44.87
2023-03-15T13:40:08.828Z,44.10
2023-03-15T13:42:40.934Z,45.17
2023-03-15T13:45:16.058Z,46.01
2023-03-15T13:47:45.961Z,46.37
2023-03-15T13:50:21.539Z,45.95
2023-03-15T13:52:49.880Z,45.94
2023-03-15T13:55:22.607Z,45.25
2023-03-15T13:57:56.993Z,43.87
2023-03-15T14:00:25.180Z,41.00
2023-03-15T14:03:00.829Z,39.59
2023-03-15T14:05:32.495Z,38.39
2023-03-15T14:08:05.909Z,38.28
2023-03-15T14:10:38.343Z,38.15
2023-03-15T14:13:32.385Z,38.04
2023-03-15T14:15:59.603Z,38.63
2023-03-15T14:18:32.551Z,39.16
2023-03-15T14:21:15.604Z,39.71
2023-03-15T14:23:48.404Z,40.28
2023-03-15T14:26:21.838Z,40.40
2023-03-15T14:28:59.243Z,41.33
2023-03-15T14:31:32.453Z,41.40
2023-03-15T14:34:18.883Z,42.94
2023-03-15T14:36:47.692Z,44.07
2023-03-15T14:39:24.833Z,43.81
2023-03-15T14:41:52.382Z,43.96
2023-03-15T14:44:20.456Z,44.17
2023-03-15T14:46:49.129Z,44.83
2023-03-15T14:49:24.808Z,43.77
2023-03-15T14:51:59.007Z,43.01
2023-03-15T14:54:28.665Z,43.59
2023-03-15T14:56:56.282Z,44.91
2023-03-15T14:59:24.050Z,45.01
2023-03-15T15:01:54.867Z,44.87
2023-03-15T15:04:23.249Z,45.08
2023-03-15T15:06:51.270Z,44.88
2023-03-15T15:09:23.497Z,45.12
2023-03-15T15:11:51.374Z,44.14
2023-03-15T15:14:19.923Z,43.78
2023-03-15T15:16:47.306Z,43.55
2023-03-15T15:19:15.587Z,43.94
2023-03-15T15:21:43.804Z,43.74
2023-03-15T15:24:19.825Z,44.07
2023-03-15T15:26:47.373Z,44.03
2023-03-15T15:29:16.641Z,45.16
2023-03-15T15:31:45.085Z,44.25
2023-03-15T15:34:12.965Z,44.48
2023-03-15T15:36:43.075Z,44.34
2023-03-15T15:39:22.146Z,44.44
2023-03-15T15:41:50.211Z,44.50
2023-03-15T15:44:22.439Z,44.76
2023-03-15T15:46:49.561Z,43.80
2023-03-15T15:49:18.180Z,44.00
2023-03-15T15:51:47.284Z,43.11
2023-03-15T15:54:18.481Z,43.08
2023-03-15T15:56:50.922Z,42.34
2023-03-15T15:59:18.870Z,42.82
2023-03-15T16:02:00.064Z,43.45
2023-03-15T16:04:28.857Z,46.22
2023-03-15T16:06:59.749Z,48.16
2023-03-15T16:09:30.142Z,48.88
2023-03-15T16:11:58.455Z,50.75
2023-03-15T16:14:26.048Z,51.89
2023-03-15T16:16:53.295Z,54.97
2023-03-15T16:19:20.934Z,56.14
2023-03-15T16:21:51.702Z,57.68
2023-03-15T16:24:23.836Z,59.17
2023-03-15T16:26:51.538Z,59.31
2023-03-15T16:29:23.085Z,59.37
2023-03-15T16:31:51.287Z,60.24
2023-03-15T16:34:19.728Z,62.77
2023-03-15T16:36:49.717Z,62.98
2023-03-15T16:39:17.919Z,63.02
2023-03-15T16:41:45.189Z,63.88
2023-03-15T16:44:17.467Z,65.80
2023-03-15T16:46:44.710Z,65.44
2023-03-15T16:49:15.340Z,66.44
2023-03-15T16:51:47.556Z,66.81
2023-03-15T16:54:24.536Z,66.87
2023-03-15T16:56:59.528Z,67.37
2023-03-15T16:59:28.421Z,67.66
2023-03-15T17:01:55.676Z,68.88
2023-03-15T17:04:23.287Z,69.59
2023-03-15T17:09:24.613Z,71.16
2023-03-15T17:11:52.548Z,71.57
2023-03-15T17:14:30.080Z,71.79
2023-03-15T17:16:57.605Z,72.50
2023-03-15T17:19:25.583Z,72.88
2023-03-15T17:21:53.996Z,72.61
2023-03-15T17:24:22.136Z,73.46
2023-03-15T17:26:49.469Z,74.10
2023-03-15T17:29:17.170Z,73.35
2023-03-15T17:31:47.197Z,71.91
2023-03-15T17:34:14.861Z,72.49
2023-03-15T17:36:42.243Z,73.58
2023-03-15T17:39:16.138Z,74.13
2023-03-15T17:41:46.976Z,74.94
2023-03-15T17:44:14.730Z,74.40
2023-03-15T17:46:43.099Z,74.86
2023-03-15T17:49:13.361Z,74.48
2023-03-15T17:51:40.715Z,74.49
2023-03-15T17:54:17.876Z,74.82
2023-03-15T17:56:45.170Z,75.34
2023-03-15T17:59:13.613Z,77.06
2023-03-15T18:01:46.555Z,77.33
2023-03-15T18:04:15.208Z,77.59
2023-03-15T18:06:42.963Z,77.97
2023-03-15T18:09:15.420Z,78.47
2023-03-15T18:11:43.989Z,78.47
2023-03-15T18:14:13.796Z,80.37
2023-03-15T18:16:42.039Z,80.43
2023-03-15T18:19:09.972Z,79.67
2023-03-15T18:21:37.380Z,79.31
2023-03-15T18:24:05.164Z,77.71
2023-03-15T18:26:32.416Z,76.05
2023-03-15T18:29:00.110Z,74.67
2023-03-15T18:31:27.415Z,73.34
2023-03-15T18:33:55.067Z,73.09
2023-03-15T18:36:22.534Z,72.38
2023-03-15T18:38:50.426Z,70.50
2023-03-15T18:41:20.925Z,69.82
2023-03-15T18:43:52.157Z,69.59
2023-03-15T18:46:22.632Z,68.76
2023-03-15T18:48:53.523Z,69.31
2023-03-15T18:51:23.289Z,70.84
2023-03-15T18:53:51.003Z,72.39
2023-03-15T18:56:26.603Z,73.96
2023-03-15T18:58:54.875Z,76.00
2023-03-15T19:01:24.457Z,76.29
2023-03-15T19:03:53.264Z,76.20
2023-03-15T19:06:21.611Z,75.77
2023-03-15T19:08:53.430Z,74.49
2023-03-15T19:11:24.084Z,74.05
2023-03-15T19:13:51.728Z,73.14
2023-03-15T19:16:20.741Z,71.51
2023-03-15T19:18:49.727Z,70.08
2023-03-15T19:21:18.899Z,69.51
2023-03-15T19:23:47.127Z,68.39
2023-03-15T19:26:14.499Z,67.46
2023-03-15T19:28:42.389Z,67.36
2023-03-15T19:31:10.266Z,68.45
2023-03-15T19:33:38.649Z,68.92
2023-03-15T19:36:06.309Z,69.07
2023-03-15T19:38:34.180Z,70.20
2023-03-15T19:41:06.325Z,71.21
2023-03-15T19:43:34.565Z,73.71
2023-03-15T19:46:01.908Z,74.04
2023-03-15T19:48:29.486Z,75.31
2023-03-15T19:50:56.705Z,77.12
2023-03-15T19:53:25.754Z,78.11
2023-03-15T19:55:52.994Z,77.66
2023-03-15T19:58:21.074Z,76.85
2023-03-15T20:00:54.261Z,76.71
2023-03-15T20:03:21.751Z,75.58
2023-03-15T20:05:49.010Z,73.90
2023-03-15T20:08:16.666Z,72.62
2023-03-15T20:10:44.138Z,71.88
2023-03-15T20:13:11.785Z,71.90
2023-03-15T20:15:39.104Z,71.51
2023-03-15T20:18:08.264Z,71.83
2023-03-15T20:20:35.486Z,71.61
2023-03-15T20:23:03.739Z,71.43
2023-03-15T20:25:31.610Z,72.22
2023-03-15T20:27:59.138Z,71.91
2023-03-15T20:30:26.478Z,73.25
2023-03-15T20:32:54.759Z,74.33
2023-03-15T20:35:22.289Z,74.22
2023-03-15T20:37:53.089Z,74.26
2023-03-15T20:40:20.939Z,74.11
2023-03-15T20:42:48.611Z,74.21
2023-03-15T20:45:15.829Z,75.63
2023-03-15T20:47:43.356Z,76.26
2023-03-15T20:50:12.023Z,76.12
2023-03-15T20:52:40.971Z,75.97
2023-03-15T20:55:09.554Z,76.82
2023-03-15T20:57:37.216Z,76.02
2023-03-15T21:00:12.437Z,74.91
2023-03-15T21:02:40.469Z,74.71
2023-03-15T21:05:09.865Z,75.10
2023-03-15T21:07:37.482Z,75.87
2023-03-15T21:10:05.560Z,75.50
2023-03-15T21:12:33.080Z,75.67
2023-03-15T21:15:01.800Z,75.52
2023-03-15T21:17:29.485Z,75.49
2023-03-15T21:19:57.189Z,76.05
2023-03-15T21:22:24.807Z,76.38
2023-03-15T21:24:55.915Z,75.99
2023-03-15T21:27:26.565Z,76.17
2023-03-15T21:29:54.177Z,76.04
2023-03-15T21:32:21.844Z,76.71
2023-03-15T21:34:49.078Z,76.98
2023-03-15T21:37:16.692Z,77.43
2023-03-15T21:39:43.946Z,77.25
2023-03-15T21:42:11.865Z,77.52
2023-03-15T21:44:39.193Z,77.13
2023-03-15T21:47:06.792Z,77.42
2023-03-15T21:49:34.047Z,77.70
2023-03-15T21:52:02.508Z,79.99
2023-03-15T21:54:29.835Z,80.81
2023-03-15T21:56:57.422Z,81.50
2023-03-15T21:59:28.070Z,84.47
2023-03-15T22:01:57.254Z,83.91
2023-03-15T22:04:25.035Z,84.62
2023-03-15T22:06:53.053Z,84.80
2023-03-15T22:09:21.063Z,83.84
2023-03-15T22:11:49.058Z,82.26
2023-03-15T22:14:16.338Z,81.66
2023-03-15T22:16:43.944Z,81.14
2023-03-15T22:19:11.219Z,81.33
2023-03-15T22:21:38.774Z,81.08
2023-03-15T22:24:06.362Z,81.44
2023-03-15T22:26:34.312Z,81.74
2023-03-15T22:29:01.519Z,82.60
2023-03-15T22:31:31.898Z,84.02
2023-03-15T22:33:59.318Z,84.68
2023-03-15T22:36:26.834Z,87.14
2023-03-15T22:38:54.097Z,87.44
2023-03-15T22:41:21.673Z,87.79
2023-03-15T22:43:49.006Z,87.45
2023-03-15T22:46:16.628Z,87.55
2023-03-15T22:48:43.904Z,87.28
2023-03-15T22:51:15.149Z,87.49
2023-03-15T22:53:42.703Z,88.24
2023-03-15T22:56:10.536Z,88.66
2023-03-15T22:58:38.105Z,87.83
2023-03-15T23:01:05.868Z,88.38
2023-03-15T23:03:33.173Z,89.12
2023-03-15T23:06:01.174Z,89.96
2023-03-15T23:08:28.648Z,90.13
2023-03-15T23:10:59.700Z,89.32
2023-03-15T23:13:27.005Z,89.40
2023-03-15T23:15:54.670Z,90.21
2023-03-15T23:18:22.439Z,88.88
2023-03-15T23:20:50.005Z,88.92
2023-03-15T23:23:17.665Z,89.54
2023-03-15T23:25:46.033Z,90.92
2023-03-15T23:28:14.013Z,92.86
2023-03-15T23:30:45.712Z,92.50
2023-03-15T23:33:13.563Z,93.98
2023-03-15T23:35:42.158Z,93.85
2023-03-15T23:38:09.526Z,93.18
2023-03-15T23:40:37.544Z,93.31
2023-03-15T23:43:05.971Z,92.61
2023-03-15T23:45:34.158Z,92.18
2023-03-15T23:48:02.681Z,93.29
2023-03-15T23:50:30.585Z,93.67
2023-03-15T23:52:58.241Z,93.08
2023-03-15T23:55:25.897Z,92.89
2023-03-15T23:57:53.314Z,92.71
